This is the latest recevied weather packets stored in our database for station/object OK2ZI. If no packets are shown the sender has not sent any weather packets the latest 10 day(s).
| Time | Temp. | Humidity | Pressure | Rain* | Wind** | Luminosity | Snow |
|---|---|---|---|---|---|---|---|
| 1777948565 | 8.89° C | 67% | 1007 hPa | 0 mm | - | - | - |
| 1777948215 | 8.89° C | 69% | 1007 hPa | 0 mm | - | - | - |
| 1777947610 | 8.89° C | 69% | 1007 hPa | 0 mm | - | - | - |
| 1777947247 | 9.44° C | 67% | 1007 hPa | 0 mm | - | - | - |
| 1777947011 | 10° C | 65% | 1008 hPa | 0 mm | - | - | - |
| 1777946646 | 9.44° C | 65% | 1007 hPa | 0 mm | - | - | - |
| 1777945926 | 8.89° C | 68% | 1008 hPa | 0 mm | - | - | - |
| 1777944485 | 10° C | 63% | 1007 hPa | 0 mm | - | - | - |
| 1777944011 | 9.44° C | 67% | 1008 hPa | 0 mm | - | - | - |
| 1777943526 | 9.44° C | 68% | 1008 hPa | 0 mm | - | - | - |
| 1777943411 | 9.44° C | 68% | 1008 hPa | 0 mm | - | - | - |
| 1777943166 | 9.44° C | 68% | 1008 hPa | 0 mm | - | - | - |
| 1777942687 | 10.56° C | 61% | 1008 hPa | 0 mm | - | - | - |
| 1777942567 | 11.11° C | 60% | 1008 hPa | 0 mm | - | - | - |
| 1777942087 | 11.67° C | 57% | 1008 hPa | 0 mm | - | - | - |
| 1777941126 | 9.44° C | 66% | 1008 hPa | 0 mm | - | - | - |
| 1777941014 | 9.44° C | 66% | 1008 hPa | 0 mm | - | - | - |
| 1777940886 | 9.44° C | 67% | 1008 hPa | 0 mm | - | - | - |
| 1777940647 | 9.44° C | 67% | 1008 hPa | 0 mm | - | - | - |
| 1777940167 | 11.67° C | 60% | 1008 hPa | 0 mm | - | - | - |
| 1777939566 | 11.67° C | 58% | 1008 hPa | 0 mm | - | - | - |
| 1777939218 | 11.11° C | 59% | 1008 hPa | 0 mm | - | - | - |
| 1777938727 | 10.56° C | 62% | 1008 hPa | 0 mm | - | - | - |
| 1777937887 | 11.11° C | 61% | 1008 hPa | 0 mm | - | - | - |
| 1777937046 | 13.33° C | 54% | 1008 hPa | 0 mm | - | - | - |
* Rain latest hour (hover to see other rain measurements)
** Current wind speed in m/s (hover to see current wind gust speed)